Port Au Choix, Canada
Current Conditions -  °F | °C
As of 1:00 AM on Saturday 25 Oct 2014 (Local Time) from CWDH Reporting Station
Clear Clear  
Wind Chill: -1°   Ceiling: Unl
Heat Index:   Visibility: 9mi
Dew Point:   Wind: 18mph
Humidity: 77%   Direction: 50°NE
Pressure: 29.66"   Gusts: 28mph
Location:  50.72°N, 57.37°W
Report Text: CWDH 250300Z AUTO 05016G24KT 9SM NSC 04/00 A2966 RMK SLP046 PK WND 04024/// T00410004 WSI/SWOB
Loading
Personal Weather Stations






























Interactive Weather Map
Tropical Storm Tracking
New forecast layout! Learn more

10-Day Weather Forecast

Advertisements
Track Severe Weather on mobile